Beja, Russia
Current Conditions -  °F | °C
As of 7:00 PM on Wednesday 22 Oct 2014 (Local Time) from UNAA Reporting Station
Broken Clouds Broken Clouds  
Wind Chill: 28°   Ceiling: 10000
Heat Index: 36°   Visibility: 6mi
Dew Point: 25°   Wind: 11mph
Humidity: 65%   Direction: 230°SW
Pressure: 30.15"   Gusts: NA
Location:  53.05°N, 90.91°E
Report Text: UNAA 221200Z 23005MPS 9999 SCT030CB BKN100 02/M04 Q1021 NOSIGRMK QFE743 20190060
Loading
Personal Weather Stations






























Interactive Weather Map
Tropical Storm Tracking
New forecast layout! Learn more

10-Day Weather Forecast

Advertisements
Track Severe Weather on mobile